Time;durP1;ratioP1;P1;durP2;ratioP2;P2;SDS_P1;SDS_P2;PMS_P1;PMS_P2;Temp;Humidity;BMP_temperature;BMP_pressure;BME280_temperature;BME280_humidity;BME280_pressure;Samples;Min_cycle;Max_cycle;Signal;HPM_P1;HPM_P2
2024/04/21 00:00:07;;;;;;;5.10;4.70;;;3.80;91.70;;;;;;5498114;26;20247;-86
2024/04/21 00:02:33;;;;;;;4.87;4.47;;;3.80;91.80;;;;;;5531063;26;20216;-88
2024/04/21 00:04:59;;;;;;;5.60;4.37;;;3.90;91.80;;;;;;5531006;26;20255;-88
2024/04/21 00:07:24;;;;;;;8.27;4.73;;;3.80;91.80;;;;;;5498226;26;20216;-88
2024/04/21 00:09:50;;;;;;;6.30;4.53;;;3.80;91.90;;;;;;5529430;26;20216;-86
2024/04/21 00:12:15;;;;;;;5.27;4.87;;;3.80;91.90;;;;;;5498171;26;20225;-89
2024/04/21 00:14:41;;;;;;;5.20;4.80;;;3.90;91.90;;;;;;5530584;26;20224;-86
2024/04/21 00:17:07;;;;;;;6.20;5.30;;;3.90;92.00;;;;;;5498533;26;20244;-86
2024/04/21 00:19:32;;;;;;;4.63;4.23;;;4.00;92.00;;;;;;5530837;26;20214;-87
2024/04/21 00:21:58;;;;;;;5.03;4.60;;;4.10;92.10;;;;;;5530652;26;20697;-86
2024/04/21 00:24:28;;;;;;;6.10;4.43;;;4.10;92.10;;;;;;5497741;26;20266;-89
2024/04/21 00:26:54;;;;;;;5.10;4.37;;;4.10;92.10;;;;;;5531243;26;20208;-89
2024/04/21 00:29:19;;;;;;;5.00;4.50;;;4.10;92.00;;;;;;5531146;26;20570;-88
2024/04/21 00:31:45;;;;;;;6.63;4.80;;;4.10;92.00;;;;;;5531021;26;20258;-87
2024/04/21 00:34:11;;;;;;;5.33;4.93;;;4.10;92.00;;;;;;5498149;26;20235;-86
2024/04/21 00:36:41;;;;;;;5.70;5.20;;;4.10;92.00;;;;;;5530859;26;20275;-89
2024/04/21 00:39:06;;;;;;;5.03;4.63;;;4.00;91.90;;;;;;5498238;26;20630;-88
2024/04/21 00:41:32;;;;;;;6.40;5.43;;;4.00;91.90;;;;;;5531136;26;20204;-87
2024/04/21 00:43:58;;;;;;;5.63;5.23;;;4.00;91.90;;;;;;5530681;26;20228;-87
2024/04/21 00:46:24;;;;;;;6.10;5.60;;;4.10;91.90;;;;;;5531250;26;20550;-87
2024/04/21 00:48:50;;;;;;;6.13;5.63;;;4.10;91.90;;;;;;5498370;26;20697;-88
2024/04/21 00:51:18;;;;;;;5.67;5.17;;;4.20;91.90;;;;;;5498129;26;20253;-88
2024/04/21 00:53:44;;;;;;;5.30;4.70;;;4.10;91.70;;;;;;5531053;26;20232;-87
2024/04/21 00:56:11;;;;;;;5.27;4.87;;;4.10;91.60;;;;;;5530783;26;20321;-88
2024/04/21 00:58:38;;;;;;;5.50;5.10;;;4.00;91.30;;;;;;5530256;26;20228;-89
2024/04/21 01:01:04;;;;;;;7.10;5.70;;;3.80;91.20;;;;;;5530706;26;20255;-88
2024/04/21 01:03:30;;;;;;;6.03;5.43;;;3.80;91.10;;;;;;5530812;26;20658;-87
2024/04/21 01:05:55;;;;;;;7.13;5.53;;;3.60;91.10;;;;;;5498367;26;20231;-88
2024/04/21 01:08:21;;;;;;;6.50;5.90;;;3.60;91.10;;;;;;5531347;26;20320;-89
2024/04/21 01:10:46;;;;;;;6.10;5.60;;;3.50;91.20;;;;;;5497897;26;20216;-89
2024/04/21 01:13:12;;;;;;;5.17;4.77;;;3.50;91.20;;;;;;5498624;26;20256;-89
2024/04/21 01:15:38;;;;;;;6.43;5.93;;;3.40;91.20;;;;;;5531211;26;20208;-89
2024/04/21 01:18:06;;;;;;;6.57;5.97;;;3.30;91.20;;;;;;5530924;26;20210;-87
2024/04/21 01:20:34;;;;;;;6.10;5.70;;;3.30;91.20;;;;;;5530265;26;20209;-88
2024/04/21 01:22:59;;;;;;;5.80;5.40;;;3.20;91.30;;;;;;5530814;26;20211;-89
2024/04/21 01:25:25;;;;;;;12.27;11.37;;;3.20;91.30;;;;;;5530202;26;20252;-88
2024/04/21 01:27:51;;;;;;;11.80;11.00;;;3.10;91.30;;;;;;5529988;26;20298;-87
2024/04/21 01:30:17;;;;;;;12.20;11.40;;;3.00;91.30;;;;;;5531059;26;20214;-88
2024/04/21 01:32:42;;;;;;;11.70;10.77;;;3.00;91.40;;;;;;5530405;26;20210;-88
2024/04/21 01:35:08;;;;;;;12.93;11.93;;;3.00;91.50;;;;;;5530054;26;20240;-88
2024/04/21 01:37:35;;;;;;;5.67;5.13;;;2.90;91.50;;;;;;5530506;26;20215;-86
2024/04/21 01:40:01;;;;;;;7.07;5.13;;;2.80;91.50;;;;;;5530163;26;20229;-86
2024/04/21 01:42:27;;;;;;;11.93;11.10;;;2.80;91.60;;;;;;5530354;26;20728;-89
2024/04/21 01:44:52;;;;;;;11.50;10.70;;;2.80;91.60;;;;;;5529860;26;20303;-88
2024/04/21 01:47:18;;;;;;;11.33;10.47;;;2.80;91.60;;;;;;5530552;26;20214;-88
2024/04/21 01:49:45;;;;;;;12.40;11.40;;;2.80;91.60;;;;;;5530115;26;20578;-87
2024/04/21 01:52:10;;;;;;;10.67;9.93;;;2.80;91.70;;;;;;5529260;26;20599;-87
2024/04/21 01:54:36;;;;;;;10.73;10.03;;;2.90;91.80;;;;;;5529833;26;20222;-88
2024/04/21 01:57:01;;;;;;;12.53;11.53;;;2.90;91.80;;;;;;5497581;26;20222;-87
2024/04/21 01:59:27;;;;;;;12.50;11.50;;;2.90;91.70;;;;;;5497416;26;20579;-88
2024/04/21 02:01:52;;;;;;;11.67;10.87;;;2.80;91.70;;;;;;5497404;26;20318;-87
2024/04/21 02:04:18;;;;;;;12.17;11.20;;;2.80;91.60;;;;;;5496459;26;20257;-89
2024/04/21 02:06:43;;;;;;;11.30;10.53;;;2.80;91.70;;;;;;5529447;26;20743;-87
2024/04/21 02:09:09;;;;;;;13.23;12.30;;;2.90;91.80;;;;;;5530057;26;20539;-87
2024/04/21 02:11:34;;;;;;;13.27;12.13;;;2.90;91.90;;;;;;5529288;26;20217;-89
2024/04/21 02:14:00;;;;;;;12.83;11.80;;;2.90;91.80;;;;;;5496692;26;20229;-89
2024/04/21 02:16:25;;;;;;;13.43;12.60;;;2.90;91.70;;;;;;5529497;26;20256;-88
2024/04/21 02:18:51;;;;;;;11.93;11.13;;;2.80;91.60;;;;;;5529901;26;20596;-87
2024/04/21 02:21:16;;;;;;;13.90;12.90;;;2.80;91.60;;;;;;5529657;26;20216;-88
2024/04/21 02:23:46;;;;;;;12.37;11.47;;;2.70;91.60;;;;;;5526942;26;20236;-86
2024/04/21 02:26:12;;;;;;;14.83;13.87;;;2.70;91.70;;;;;;5525972;26;20606;-87
2024/04/21 02:28:37;;;;;;;13.60;12.57;;;2.80;91.70;;;;;;5525765;26;20211;-86
2024/04/21 02:31:03;;;;;;;13.00;12.10;;;2.80;91.80;;;;;;5525895;26;20214;-86
2024/04/21 02:33:29;;;;;;;14.10;13.23;;;2.90;91.80;;;;;;5527475;26;20252;-87
2024/04/21 02:35:54;;;;;;;14.87;13.83;;;2.90;91.80;;;;;;5529316;26;20212;-86
2024/04/21 02:38:20;;;;;;;15.73;14.67;;;2.90;91.70;;;;;;5529362;26;20272;-86
2024/04/21 02:40:45;;;;;;;13.97;12.83;;;2.90;91.50;;;;;;5529562;26;20317;-85
2024/04/21 02:43:11;;;;;;;14.97;13.90;;;2.70;91.20;;;;;;5529064;26;20313;-86
2024/04/21 02:45:36;;;;;;;7.50;6.90;;;2.60;91.00;;;;;;5529664;26;20220;-86
2024/04/21 02:48:02;;;;;;;7.57;6.80;;;2.50;91.10;;;;;;5496679;26;20225;-85
2024/04/21 02:50:28;;;;;;;10.47;9.20;;;2.40;91.10;;;;;;5496955;26;20221;-86
2024/04/21 02:52:53;;;;;;;13.97;12.87;;;2.40;91.20;;;;;;5529253;26;20222;-86
2024/04/21 02:55:20;;;;;;;14.47;13.37;;;2.40;91.20;;;;;;5529020;26;20321;-85
2024/04/21 02:57:45;;;;;;;13.70;12.53;;;2.40;91.40;;;;;;5529190;26;20218;-86
2024/04/21 03:00:11;;;;;;;13.67;12.40;;;2.40;91.50;;;;;;5529265;26;20210;-89
2024/04/21 03:02:37;;;;;;;12.80;11.70;;;2.40;91.60;;;;;;5529616;26;20249;-86
2024/04/21 03:05:03;;;;;;;13.00;11.90;;;2.40;91.60;;;;;;5528894;26;20564;-86
2024/04/21 03:07:29;;;;;;;12.33;11.33;;;2.30;91.70;;;;;;5529140;26;20256;-86
2024/04/21 03:09:54;;;;;;;13.77;12.67;;;2.30;91.70;;;;;;5529105;26;20210;-86
2024/04/21 03:12:20;;;;;;;14.60;13.13;;;2.30;91.70;;;;;;5529256;26;20218;-86
2024/04/21 03:14:45;;;;;;;13.47;12.43;;;2.20;91.80;;;;;;5528940;26;20249;-87
2024/04/21 03:17:11;;;;;;;13.20;11.90;;;2.10;91.80;;;;;;5496301;26;20221;-87
2024/04/21 03:19:36;;;;;;;13.80;12.60;;;2.20;91.90;;;;;;5529178;26;20769;-87
2024/04/21 03:22:02;;;;;;;13.40;12.30;;;2.10;91.90;;;;;;5529034;26;20210;-87
2024/04/21 03:24:27;;;;;;;13.37;12.37;;;2.10;91.90;;;;;;5528672;26;20250;-87
2024/04/21 03:26:53;;;;;;;12.97;11.97;;;2.00;92.00;;;;;;5528822;26;20210;-86
2024/04/21 03:29:18;;;;;;;14.30;13.20;;;1.90;92.00;;;;;;5496222;26;20218;-84
2024/04/21 03:31:44;;;;;;;8.23;7.43;;;1.90;92.10;;;;;;5528737;26;20312;-85
2024/04/21 03:34:10;;;;;;;9.53;8.33;;;1.90;92.20;;;;;;5528718;26;20290;-87
2024/04/21 03:36:36;;;;;;;11.33;10.30;;;1.90;92.20;;;;;;5528708;26;20259;-87
2024/04/21 03:39:02;;;;;;;14.10;13.00;;;2.00;92.30;;;;;;5528742;26;20569;-86
2024/04/21 03:41:28;;;;;;;13.33;12.30;;;2.00;92.40;;;;;;5528550;26;20252;-86
2024/04/21 03:43:54;;;;;;;15.73;14.53;;;2.10;92.50;;;;;;5528416;26;20222;-86
2024/04/21 03:46:20;;;;;;;14.60;13.47;;;2.10;92.50;;;;;;5528561;26;20548;-86
2024/04/21 03:48:45;;;;;;;14.03;13.03;;;2.20;92.60;;;;;;5529054;26;20259;-86
2024/04/21 03:51:11;;;;;;;14.20;13.10;;;2.30;92.60;;;;;;5528661;26;20257;-86
2024/04/21 03:53:36;;;;;;;15.47;14.10;;;2.30;92.60;;;;;;5528636;26;20245;-86
2024/04/21 03:56:02;;;;;;;14.07;12.77;;;2.30;92.60;;;;;;5496003;26;20222;-89
2024/04/21 03:58:28;;;;;;;15.97;14.27;;;2.40;92.70;;;;;;5528403;26;20286;-86
2024/04/21 04:00:53;;;;;;;12.40;11.33;;;2.40;92.70;;;;;;5495803;26;20214;-86
2024/04/21 04:03:19;;;;;;;16.07;14.70;;;2.40;92.70;;;;;;5528494;26;20318;-86
2024/04/21 04:05:45;;;;;;;15.83;14.50;;;2.40;92.70;;;;;;5495730;26;20575;-86
2024/04/21 04:08:15;;;;;;;14.53;13.23;;;2.40;92.70;;;;;;5528213;26;20210;-86
2024/04/21 04:10:42;;;;;;;14.33;13.17;;;2.50;92.80;;;;;;5528057;26;20270;-87
2024/04/21 04:13:08;;;;;;;9.60;8.80;;;2.50;92.70;;;;;;5528155;26;20210;-85
2024/04/21 04:15:33;;;;;;;11.50;9.90;;;2.40;92.60;;;;;;5527989;26;20701;-84
2024/04/21 04:17:59;;;;;;;10.47;9.33;;;2.40;92.60;;;;;;5527963;26;20619;-86
2024/04/21 04:20:25;;;;;;;15.57;14.27;;;2.40;92.50;;;;;;5527967;26;20206;-86
2024/04/21 04:22:50;;;;;;;14.80;13.57;;;2.30;92.50;;;;;;5527955;26;20779;-87
2024/04/21 04:25:16;;;;;;;14.80;13.57;;;2.40;92.60;;;;;;5528189;26;20256;-86
2024/04/21 04:27:42;;;;;;;15.10;13.83;;;2.40;92.50;;;;;;5527748;26;20214;-86
2024/04/21 04:30:08;;;;;;;14.87;13.67;;;2.40;92.50;;;;;;5527788;26;20295;-86
2024/04/21 04:32:33;;;;;;;16.00;14.77;;;2.40;92.50;;;;;;5495232;26;20560;-86
2024/04/21 04:34:59;;;;;;;15.20;13.83;;;2.40;92.40;;;;;;5495124;26;20226;-86
2024/04/21 04:37:24;;;;;;;13.73;12.67;;;2.40;92.40;;;;;;5495032;26;20221;-85
2024/04/21 04:39:50;;;;;;;14.57;13.27;;;2.40;92.40;;;;;;5527472;26;20831;-86
2024/04/21 04:42:16;;;;;;;13.53;12.33;;;2.40;92.40;;;;;;5527834;26;20260;-86
2024/04/21 04:44:41;;;;;;;10.40;9.20;;;2.40;92.40;;;;;;5527736;26;20736;-86
2024/04/21 04:47:07;;;;;;;10.97;9.63;;;2.50;92.40;;;;;;5494781;26;20229;-86
2024/04/21 04:49:32;;;;;;;10.37;9.03;;;2.50;92.40;;;;;;5527406;26;20214;-86
2024/04/21 04:51:58;;;;;;;10.80;9.70;;;2.60;92.40;;;;;;5527854;26;20260;-85
2024/04/21 04:54:23;;;;;;;10.47;9.37;;;2.60;92.40;;;;;;5527287;26;20222;-86
2024/04/21 04:56:52;;;;;;;10.87;9.77;;;2.60;92.40;;;;;;5526559;26;20206;-85
2024/04/21 04:59:18;;;;;;;10.53;9.43;;;2.70;92.40;;;;;;5527376;26;20665;-87
2024/04/21 05:01:43;;;;;;;11.63;10.33;;;2.80;92.40;;;;;;5527066;26;20214;-87
2024/04/21 05:04:09;;;;;;;10.07;9.07;;;2.80;92.40;;;;;;5527218;26;20225;-86
2024/04/21 05:06:36;;;;;;;10.87;9.77;;;2.90;92.50;;;;;;5527449;26;20210;-85
2024/04/21 05:09:01;;;;;;;10.70;9.70;;;3.10;92.50;;;;;;5494303;26;20218;-87
2024/04/21 05:11:27;;;;;;;10.80;9.70;;;3.20;92.60;;;;;;5527225;26;20609;-87
2024/04/21 05:13:52;;;;;;;11.20;10.00;;;3.40;92.70;;;;;;5527060;26;20714;-86
2024/04/21 05:16:18;;;;;;;10.77;9.77;;;3.50;92.70;;;;;;5494532;26;20296;-86
2024/04/21 05:18:43;;;;;;;9.50;8.57;;;3.60;92.70;;;;;;5527183;26;20210;-86
2024/04/21 05:21:09;;;;;;;10.23;8.83;;;3.60;92.60;;;;;;5527074;26;20208;-86
2024/04/21 05:23:36;;;;;;;10.07;9.07;;;3.60;92.50;;;;;;5527012;26;20231;-87
2024/04/21 05:26:02;;;;;;;10.30;9.40;;;3.50;92.20;;;;;;5494563;26;20313;-85
2024/04/21 05:28:27;;;;;;;10.57;9.53;;;3.60;92.10;;;;;;5527397;26;20608;-86
2024/04/21 05:30:53;;;;;;;10.33;8.80;;;3.60;91.90;;;;;;5527053;26;20210;-86
2024/04/21 05:33:18;;;;;;;10.37;9.40;;;3.60;91.80;;;;;;5494091;26;20326;-88
2024/04/21 05:35:44;;;;;;;11.03;9.33;;;3.60;91.60;;;;;;5526949;26;20212;-86
2024/04/21 05:38:09;;;;;;;10.80;9.80;;;3.60;91.40;;;;;;5526845;26;20260;-86
2024/04/21 05:40:35;;;;;;;10.73;9.73;;;3.60;91.40;;;;;;5526454;26;20323;-86
2024/04/21 05:43:00;;;;;;;10.87;9.83;;;3.70;91.40;;;;;;5526618;26;20319;-85
2024/04/21 05:45:26;;;;;;;11.13;10.03;;;3.70;91.40;;;;;;5526636;26;20246;-86
2024/04/21 05:47:52;;;;;;;9.90;9.00;;;3.80;91.50;;;;;;5526688;26;20224;-85
2024/04/21 05:50:17;;;;;;;10.13;9.23;;;3.90;91.40;;;;;;5526326;26;20815;-85
2024/04/21 05:52:43;;;;;;;10.10;9.20;;;4.00;91.40;;;;;;5526459;26;20213;-86
2024/04/21 05:55:08;;;;;;;9.83;8.93;;;4.00;91.10;;;;;;5526638;26;20222;-86
2024/04/21 05:57:34;;;;;;;9.87;8.93;;;4.10;90.90;;;;;;5526413;26;20210;-85
2024/04/21 05:59:59;;;;;;;10.23;9.37;;;4.20;90.80;;;;;;5526091;26;20254;-88
2024/04/21 06:02:25;;;;;;;11.20;10.10;;;4.10;90.40;;;;;;5526630;26;20256;-87
2024/04/21 06:04:50;;;;;;;11.17;9.90;;;4.20;90.40;;;;;;5493408;26;20271;-87
2024/04/21 06:07:16;;;;;;;10.07;9.17;;;4.30;90.40;;;;;;5493748;26;20316;-89
2024/04/21 06:09:41;;;;;;;10.13;9.17;;;4.30;90.30;;;;;;5530144;26;20734;-86
2024/04/21 06:12:07;;;;;;;10.57;9.57;;;4.30;90.10;;;;;;5497300;26;20222;-87
2024/04/21 06:14:32;;;;;;;10.50;9.50;;;4.30;90.00;;;;;;5529899;26;20253;-86
2024/04/21 06:16:58;;;;;;;10.33;9.43;;;4.30;89.90;;;;;;5497209;26;20249;-85
2024/04/21 06:19:24;;;;;;;9.30;8.50;;;4.40;89.80;;;;;;5529685;26;20254;-86
2024/04/21 06:21:49;;;;;;;10.80;9.90;;;4.50;89.90;;;;;;5529828;26;20719;-86
2024/04/21 06:24:15;;;;;;;11.43;10.40;;;4.50;89.70;;;;;;5529425;26;20313;-85
2024/04/21 06:26:41;;;;;;;14.67;13.20;;;4.70;89.40;;;;;;5529522;26;20804;-86
2024/04/21 06:29:07;;;;;;;14.73;13.43;;;4.80;89.00;;;;;;5497060;26;20224;-87
2024/04/21 06:31:33;;;;;;;12.90;11.80;;;5.00;89.30;;;;;;5529491;26;20253;-86
2024/04/21 06:33:58;;;;;;;11.43;10.50;;;5.30;89.30;;;;;;5497245;26;20229;-85
2024/04/21 06:36:24;;;;;;;11.00;10.10;;;5.50;89.00;;;;;;5529358;26;20214;-86
2024/04/21 06:38:51;;;;;;;12.67;11.73;;;5.70;88.50;;;;;;5497005;26;20218;-86
2024/04/21 06:41:17;;;;;;;12.73;11.83;;;5.80;86.90;;;;;;5497001;26;20254;-86
2024/04/21 06:43:42;;;;;;;13.63;12.63;;;6.00;86.10;;;;;;5529297;26;20226;-86
2024/04/21 06:46:08;;;;;;;14.20;13.10;;;6.00;85.30;;;;;;5496548;26;20222;-86
2024/04/21 06:48:34;;;;;;;14.70;13.70;;;6.00;83.70;;;;;;5529410;26;20222;-85
2024/04/21 06:50:59;;;;;;;15.97;14.87;;;6.00;81.50;;;;;;5529641;26;20211;-86
2024/04/21 06:53:25;;;;;;;15.90;14.50;;;6.10;81.70;;;;;;5529080;26;20632;-86
2024/04/21 06:55:51;;;;;;;12.17;11.27;;;6.20;81.40;;;;;;5529093;26;20334;-87
2024/04/21 06:58:18;;;;;;;13.10;12.20;;;6.20;81.10;;;;;;5529417;26;20214;-86
2024/04/21 07:00:44;;;;;;;17.27;16.07;;;6.20;79.30;;;;;;5529860;26;20214;-85
2024/04/21 07:03:10;;;;;;;18.73;17.47;;;6.30;79.20;;;;;;5496476;26;20821;-86
2024/04/21 07:05:36;;;;;;;18.47;17.17;;;6.30;78.50;;;;;;5529158;26;20296;-86
2024/04/21 07:08:01;;;;;;;20.50;19.10;;;6.40;77.90;;;;;;5528961;26;20210;-87
2024/04/21 07:10:27;;;;;;;18.60;17.30;;;6.40;77.10;;;;;;5529364;26;20559;-86
2024/04/21 07:12:53;;;;;;;21.57;20.17;;;6.60;78.60;;;;;;5496187;26;20593;-88
2024/04/21 07:15:18;;;;;;;20.73;19.33;;;6.60;77.10;;;;;;5529425;26;20210;-86
2024/04/21 07:17:44;;;;;;;22.20;20.57;;;6.70;77.00;;;;;;5496279;26;20252;-86
2024/04/21 07:20:09;;;;;;;22.47;20.87;;;6.70;76.20;;;;;;5530158;26;20210;-87
2024/04/21 07:22:35;;;;;;;22.40;20.80;;;6.70;76.00;;;;;;5531152;26;20317;-87
2024/04/21 07:25:01;;;;;;;20.33;18.93;;;6.70;76.50;;;;;;5531883;26;20226;-88
2024/04/21 07:27:27;;;;;;;18.63;17.07;;;6.80;76.90;;;;;;5498009;26;20233;-89
2024/04/21 07:29:52;;;;;;;21.33;19.60;;;6.80;77.20;;;;;;5497247;26;20252;-89
2024/04/21 07:32:18;;;;;;;20.33;18.93;;;6.90;77.10;;;;;;5497074;26;20222;-88
2024/04/21 07:34:43;;;;;;;15.67;14.57;;;7.00;77.30;;;;;;5497641;26;20669;-87
2024/04/21 07:37:09;;;;;;;15.57;14.43;;;7.00;75.40;;;;;;5497665;26;20230;-87
2024/04/21 07:39:34;;;;;;;14.10;13.20;;;7.00;75.50;;;;;;5530182;26;20326;-86
2024/04/21 07:42:00;;;;;;;15.93;14.77;;;7.10;75.20;;;;;;5534355;26;20206;-87
2024/04/21 07:44:25;;;;;;;15.93;14.70;;;7.10;73.30;;;;;;5532601;26;20222;-88
2024/04/21 07:46:51;;;;;;;15.13;14.03;;;7.20;74.70;;;;;;5529153;26;20222;-88
2024/04/21 07:49:16;;;;;;;17.20;16.00;;;7.10;72.90;;;;;;5528823;26;20422;-90
2024/04/21 07:51:42;;;;;;;15.00;13.70;;;7.00;72.20;;;;;;5496016;26;20222;-90
2024/04/21 07:54:07;;;;;;;16.30;14.90;;;7.10;74.40;;;;;;5496464;26;20230;-86
2024/04/21 07:56:33;;;;;;;16.87;15.47;;;7.20;74.40;;;;;;5528792;26;20781;-89
2024/04/21 07:58:59;;;;;;;16.13;14.93;;;7.30;73.30;;;;;;5528802;26;20210;-88
2024/04/21 08:01:25;;;;;;;17.10;15.90;;;7.40;73.20;;;;;;5528921;26;20214;-87
2024/04/21 08:03:50;;;;;;;18.00;16.57;;;7.40;72.10;;;;;;5496206;26;20627;-87
2024/04/21 08:06:17;;;;;;;17.40;16.20;;;7.50;72.30;;;;;;5529005;26;20260;-88
2024/04/21 08:08:43;;;;;;;17.13;16.03;;;7.50;72.40;;;;;;5529837;26;20214;-89
2024/04/21 08:11:09;;;;;;;17.43;16.03;;;7.50;70.50;;;;;;5529453;26;20210;-87
2024/04/21 08:13:35;;;;;;;18.33;17.03;;;7.60;71.70;;;;;;5497426;26;20234;-87
2024/04/21 08:16:00;;;;;;;17.87;16.60;;;7.70;69.80;;;;;;5529521;26;20213;-88
2024/04/21 08:18:26;;;;;;;18.93;17.63;;;7.80;72.40;;;;;;5529171;26;20680;-88
2024/04/21 08:20:51;;;;;;;19.13;17.83;;;7.80;69.70;;;;;;5529408;26;20252;-88
2024/04/21 08:23:17;;;;;;;18.47;17.13;;;7.80;68.90;;;;;;5529172;26;20222;-88
2024/04/21 08:25:46;;;;;;;17.83;16.53;;;7.70;70.60;;;;;;5530012;26;20261;-87
2024/04/21 08:28:12;;;;;;;19.20;17.77;;;7.80;70.10;;;;;;5497194;26;20243;-87
2024/04/21 08:30:38;;;;;;;18.20;17.00;;;7.80;69.20;;;;;;5528551;26;20211;-87
2024/04/21 08:33:04;;;;;;;17.00;15.70;;;7.90;69.90;;;;;;5530669;26;20210;-87
2024/04/21 08:35:29;;;;;;;17.70;16.40;;;7.90;71.70;;;;;;5529105;26;20609;-85
2024/04/21 08:37:55;;;;;;;18.30;17.07;;;8.00;70.40;;;;;;5528126;26;20210;-84
2024/04/21 08:40:20;;;;;;;20.23;18.73;;;8.00;69.70;;;;;;5530729;26;20277;-88
2024/04/21 08:42:47;;;;;;;18.07;16.87;;;7.70;69.10;;;;;;5502723;26;20225;-87
2024/04/21 08:45:15;;;;;;;18.70;17.30;;;7.60;69.60;;;;;;5501823;26;20282;-86
2024/04/21 08:47:41;;;;;;;18.77;17.57;;;7.70;69.60;;;;;;5533127;26;20309;-86
2024/04/21 08:50:08;;;;;;;18.13;16.93;;;7.90;68.30;;;;;;5534767;26;20210;-87
2024/04/21 08:52:33;;;;;;;18.93;17.73;;;8.00;65.00;;;;;;5504402;26;20687;-87
2024/04/21 08:55:00;;;;;;;20.17;18.70;;;8.20;63.50;;;;;;5536249;26;20248;-86
2024/04/21 08:57:26;;;;;;;19.73;18.53;;;8.30;64.40;;;;;;5504290;26;20637;-86
2024/04/21 08:59:57;;;;;;;19.63;18.23;;;8.40;63.10;;;;;;5535772;26;20674;-86
2024/04/21 09:02:23;;;;;;;21.10;19.63;;;8.60;65.50;;;;;;5503184;26;20226;-86
2024/04/21 09:04:49;;;;;;;33.37;31.10;;;8.60;62.20;;;;;;5501778;26;20794;-86
2024/04/21 09:07:16;;;;;;;31.93;29.63;;;8.70;62.70;;;;;;5502193;26;20245;-89
2024/04/21 09:09:45;;;;;;;32.07;29.87;;;8.70;61.30;;;;;;5535512;26;20260;-87
2024/04/21 09:12:14;;;;;;;35.23;32.57;;;8.60;62.70;;;;;;5502385;26;20222;-88
2024/04/21 09:14:44;;;;;;;35.37;33.07;;;8.70;60.60;;;;;;5502547;26;20261;-87
2024/04/21 09:17:10;;;;;;;35.70;33.20;;;8.90;60.10;;;;;;5534322;26;20214;-86
2024/04/21 09:19:35;;;;;;;34.23;31.83;;;8.90;58.40;;;;;;5531619;26;20256;-86
2024/04/21 09:22:02;;;;;;;35.00;32.50;;;8.80;61.40;;;;;;5500580;26;20222;-87
2024/04/21 09:24:28;;;;;;;34.73;32.33;;;8.70;60.00;;;;;;5500924;26;20320;-87
2024/04/21 09:26:53;;;;;;;35.13;32.80;;;8.50;61.50;;;;;;5501233;26;20226;-87
2024/04/21 09:29:19;;;;;;;33.67;31.37;;;8.30;61.10;;;;;;5532265;26;20260;-86
2024/04/21 09:31:52;;;;;;;34.50;32.10;;;8.50;63.60;;;;;;5531907;26;20253;-86
2024/04/21 09:34:21;;;;;;;36.13;33.53;;;8.80;61.70;;;;;;5501118;26;20264;-87
2024/04/21 09:36:47;;;;;;;36.17;33.67;;;9.00;59.00;;;;;;5500523;26;20299;-87
2024/04/21 09:39:13;;;;;;;35.10;32.70;;;9.40;60.90;;;;;;5502270;26;20229;-86
2024/04/21 09:41:44;;;;;;;37.70;35.10;;;9.50;59.20;;;;;;5500879;26;20761;-86
2024/04/21 09:44:11;;;;;;;38.70;36.00;;;9.60;58.50;;;;;;5537712;26;20295;-87
2024/04/21 09:46:37;;;;;;;37.47;34.97;;;9.60;56.30;;;;;;5538789;26;20210;-86
2024/04/21 09:49:03;;;;;;;35.00;32.60;;;9.70;58.20;;;;;;5505577;26;20233;-86
2024/04/21 09:51:30;;;;;;;36.70;34.30;;;9.70;56.90;;;;;;5539026;26;20210;-87
2024/04/21 09:53:57;;;;;;;35.87;33.47;;;9.60;55.20;;;;;;5538593;26;20248;-87
2024/04/21 09:56:33;;;;;;;36.03;33.63;;;9.40;55.80;;;;;;5503955;26;20306;-87
2024/04/21 09:59:00;;;;;;;34.07;31.70;;;9.30;56.10;;;;;;5505603;26;20252;-87
2024/04/21 10:01:33;;;;;;;23.27;21.67;;;9.50;54.40;;;;;;5537249;26;20257;-87
2024/04/21 10:04:02;;;;;;;23.03;21.43;;;9.60;55.60;;;;;;5504040;26;20316;-88
2024/04/21 10:06:29;;;;;;;22.80;21.10;;;9.80;59.70;;;;;;5504479;26;20544;-89
2024/04/21 10:09:00;;;;;;;22.70;21.20;;;10.20;58.80;;;;;;5533411;26;20670;-88
2024/04/21 10:11:25;;;;;;;23.33;21.63;;;10.30;57.90;;;;;;5498526;26;20241;-88
2024/04/21 10:13:52;;;;;;;22.57;20.97;;;10.30;54.40;;;;;;5530057;26;20226;-88
2024/04/21 10:16:19;;;;;;;23.33;21.73;;;9.90;55.20;;;;;;5497346;26;20716;-89
2024/04/21 10:18:44;;;;;;;23.03;21.43;;;9.60;55.00;;;;;;5497213;26;20270;-88
2024/04/21 10:21:10;;;;;;;23.30;21.67;;;9.30;57.10;;;;;;5497326;26;20222;-87
2024/04/21 10:23:38;;;;;;;22.43;20.83;;;9.10;57.80;;;;;;5530013;26;20230;-88
2024/04/21 10:26:03;;;;;;;22.23;20.70;;;9.00;58.50;;;;;;5529776;26;20680;-88
2024/04/21 10:28:29;;;;;;;23.17;21.57;;;9.00;60.30;;;;;;5529884;26;20218;-88
2024/04/21 10:31:08;;;;;;;23.33;21.63;;;8.80;58.10;;;;;;5530801;26;20244;-91
2024/04/21 10:33:35;;;;;;;23.47;21.87;;;8.80;59.00;;;;;;5529548;26;20774;-90
2024/04/21 10:36:01;;;;;;;21.93;20.53;;;8.70;59.60;;;;;;5529685;26;20218;-90
2024/04/21 10:38:26;;;;;;;22.90;21.30;;;8.70;58.90;;;;;;5529284;26;20753;-90
2024/04/21 10:40:56;;;;;;;22.60;21.10;;;8.70;59.80;;;;;;5496971;26;20226;-90
2024/04/21 10:43:24;;;;;;;22.90;21.30;;;8.70;58.00;;;;;;5496663;26;20237;-90
2024/04/21 10:46:00;;;;;;;22.30;20.87;;;8.80;58.40;;;;;;5529201;26;20713;-89
2024/04/21 10:48:25;;;;;;;22.30;20.60;;;8.90;59.30;;;;;;5529416;26;20217;-86
2024/04/21 10:50:53;;;;;;;22.67;20.93;;;9.10;61.80;;;;;;5530067;26;20306;-88
2024/04/21 10:53:19;;;;;;;24.07;22.27;;;9.30;60.00;;;;;;5496238;26;20264;-89
2024/04/21 10:55:45;;;;;;;22.50;20.90;;;9.30;58.00;;;;;;5530082;26;20210;-89
2024/04/21 10:58:11;;;;;;;24.10;22.50;;;9.10;55.70;;;;;;5497006;26;20245;-89
2024/04/21 11:00:38;;;;;;;23.27;21.63;;;9.00;55.20;;;;;;5496695;26;20218;-88
2024/04/21 11:03:06;;;;;;;22.63;21.03;;;9.10;57.40;;;;;;5528992;26;20210;-89
2024/04/21 11:05:41;;;;;;;22.53;21.03;;;9.30;56.80;;;;;;5496513;26;20256;-89
2024/04/21 11:08:07;;;;;;;22.03;20.63;;;9.70;56.60;;;;;;5530044;26;20178;-89
2024/04/21 11:10:33;;;;;;;22.23;20.73;;;10.00;55.10;;;;;;5529650;26;20210;-88
2024/04/21 11:12:58;;;;;;;22.00;20.23;;;10.20;54.90;;;;;;5529869;26;20214;-88
2024/04/21 11:15:24;;;;;;;22.10;20.60;;;10.20;52.00;;;;;;5529652;26;20694;-87
2024/04/21 11:17:57;;;;;;;24.03;22.23;;;10.20;54.10;;;;;;5529414;26;20350;-88
2024/04/21 11:20:24;;;;;;;22.50;20.90;;;10.30;54.10;;;;;;5528903;26;20256;-90
2024/04/21 11:22:50;;;;;;;22.90;21.20;;;10.40;52.30;;;;;;5529102;26;20214;-87
2024/04/21 11:25:16;;;;;;;22.40;20.80;;;10.70;54.30;;;;;;5528817;26;20548;-89
2024/04/21 11:27:41;;;;;;;23.33;21.63;;;10.90;54.10;;;;;;5529310;26;20222;-89
2024/04/21 11:30:07;;;;;;;22.10;20.57;;;11.00;49.80;;;;;;5496133;26;20578;-88
2024/04/21 11:32:33;;;;;;;22.33;20.63;;;11.20;50.20;;;;;;5496171;26;20314;-89
2024/04/21 11:34:58;;;;;;;22.10;20.50;;;11.30;51.20;;;;;;5529194;26;20222;-89
2024/04/21 11:37:24;;;;;;;22.50;20.90;;;11.30;52.10;;;;;;5528612;26;20605;-89
2024/04/21 11:39:49;;;;;;;23.30;21.53;;;11.20;48.20;;;;;;5528444;26;20278;-89
2024/04/21 11:42:15;;;;;;;22.47;20.87;;;11.10;51.40;;;;;;5529214;26;20218;-88
2024/04/21 11:44:42;;;;;;;22.83;21.10;;;10.90;50.00;;;;;;5528352;26;20261;-89
2024/04/21 11:47:07;;;;;;;22.97;21.27;;;10.90;50.00;;;;;;5528698;26;20680;-89
2024/04/21 11:49:33;;;;;;;23.00;21.30;;;10.80;48.80;;;;;;5528365;26;20206;-87
2024/04/21 11:51:58;;;;;;;23.03;21.27;;;10.90;50.30;;;;;;5528855;26;20218;-87
2024/04/21 11:54:24;;;;;;;23.40;21.73;;;10.70;49.20;;;;;;5528562;26;20230;-88
2024/04/21 11:56:53;;;;;;;23.80;22.10;;;10.60;51.40;;;;;;5528551;26;20214;-86
2024/04/21 11:59:19;;;;;;;23.10;21.50;;;10.40;51.10;;;;;;5496104;26;20271;-87
2024/04/21 12:01:45;;;;;;;23.57;21.97;;;10.50;51.10;;;;;;5528432;26;20649;-88
2024/04/21 12:04:10;;;;;;;23.60;21.80;;;10.50;50.60;;;;;;5528375;26;20245;-87
2024/04/21 12:06:36;;;;;;;23.50;21.90;;;10.50;48.40;;;;;;5528038;26;20214;-86
2024/04/21 12:09:05;;;;;;;22.63;21.13;;;10.30;48.60;;;;;;5528065;26;20582;-86
2024/04/21 12:11:31;;;;;;;22.67;21.17;;;10.00;51.40;;;;;;5528349;26;20287;-87
2024/04/21 12:14:16;;;;;;;23.73;22.13;;;9.90;53.40;;;;;;5528454;26;20256;-87
2024/04/21 12:16:42;;;;;;;38.30;35.70;;;9.80;52.60;;;;;;5528279;26;20603;-86
2024/04/21 12:19:07;;;;;;;37.07;34.67;;;9.60;53.50;;;;;;5528264;26;20214;-87
2024/04/21 12:21:33;;;;;;;38.83;36.43;;;9.60;53.00;;;;;;5527962;26;20206;-86
2024/04/21 12:23:59;;;;;;;34.97;32.67;;;9.70;55.40;;;;;;5527914;26;20218;-88
2024/04/21 12:26:25;;;;;;;36.10;33.70;;;9.70;55.80;;;;;;5528006;26;20585;-86
2024/04/21 12:28:50;;;;;;;37.57;35.07;;;9.70;57.00;;;;;;5528233;26;20214;-87
2024/04/21 12:31:16;;;;;;;32.10;29.90;;;9.70;55.40;;;;;;5528269;26;20241;-87
2024/04/21 12:33:41;;;;;;;36.13;33.70;;;9.80;56.70;;;;;;5527623;26;20615;-86